Lagrange, Wyoming
Current Conditions -  °F | °C
As of 7:53 PM on Friday 26 Dec 2014 (Local Time) from KTOR Reporting Station
Light Snow Light Snow  
Wind Chill: 10°   Ceiling: 6000
Heat Index: 17°   Visibility: 5mi
Dew Point: 14°   Wind: 5mph
Humidity: 88%   Direction: 300°WNW
Pressure: 30.08"   Gusts: NA
Location:  41.63°N, 104.35°W
Report Text: KTOR 270253Z AUTO 30004KT 5SM -SN BR OVC060 M08/M10 A3008 RMK AO2 SNB22 SLP240 P0000 60000 T10831100 51013
Loading
Personal Weather Stations






























Interactive Weather Map New forecast layout! Learn more

10-Day Weather Forecast

Advertisements
Track Severe Weather on mobile